sensor_id;sensor_type;location;lat;lon;timestamp;P1;durP1;ratioP1;P2;durP2;ratioP2
59271;SDS011;45043;51.068;7.026;2022-12-07T00:00:07;32.57;;;25.60;;
59271;SDS011;45043;51.068;7.026;2022-12-07T00:03:08;37.80;;;27.17;;
59271;SDS011;45043;51.068;7.026;2022-12-07T00:06:09;37.17;;;26.80;;
59271;SDS011;45043;51.068;7.026;2022-12-07T00:09:11;37.20;;;27.23;;
59271;SDS011;45043;51.068;7.026;2022-12-07T00:12:16;34.97;;;28.77;;
59271;SDS011;45043;51.068;7.026;2022-12-07T00:15:16;37.47;;;27.93;;
59271;SDS011;45043;51.068;7.026;2022-12-07T00:18:16;38.73;;;27.87;;
59271;SDS011;45043;51.068;7.026;2022-12-07T00:21:18;33.27;;;25.60;;
59271;SDS011;45043;51.068;7.026;2022-12-07T00:24:20;35.03;;;26.63;;
59271;SDS011;45043;51.068;7.026;2022-12-07T00:27:21;37.23;;;27.53;;
59271;SDS011;45043;51.068;7.026;2022-12-07T00:30:21;39.03;;;27.17;;
59271;SDS011;45043;51.068;7.026;2022-12-07T00:33:22;34.30;;;27.23;;
59271;SDS011;45043;51.068;7.026;2022-12-07T00:36:23;35.53;;;27.30;;
59271;SDS011;45043;51.068;7.026;2022-12-07T00:39:24;35.73;;;26.07;;
59271;SDS011;45043;51.068;7.026;2022-12-07T00:42:24;35.97;;;26.90;;
59271;SDS011;45043;51.068;7.026;2022-12-07T00:45:25;33.50;;;25.77;;
59271;SDS011;45043;51.068;7.026;2022-12-07T00:48:25;33.83;;;26.73;;
59271;SDS011;45043;51.068;7.026;2022-12-07T00:51:26;35.13;;;28.43;;
59271;SDS011;45043;51.068;7.026;2022-12-07T00:54:26;31.80;;;26.37;;
59271;SDS011;45043;51.068;7.026;2022-12-07T00:57:27;33.20;;;27.67;;
59271;SDS011;45043;51.068;7.026;2022-12-07T01:00:27;36.03;;;26.17;;
59271;SDS011;45043;51.068;7.026;2022-12-07T01:03:28;33.67;;;26.57;;
59271;SDS011;45043;51.068;7.026;2022-12-07T01:06:29;30.50;;;24.90;;
59271;SDS011;45043;51.068;7.026;2022-12-07T01:09:30;31.13;;;24.20;;
59271;SDS011;45043;51.068;7.026;2022-12-07T01:12:30;29.60;;;24.40;;
59271;SDS011;45043;51.068;7.026;2022-12-07T01:15:30;38.60;;;25.40;;
59271;SDS011;45043;51.068;7.026;2022-12-07T01:18:31;30.23;;;24.33;;
59271;SDS011;45043;51.068;7.026;2022-12-07T01:21:34;32.77;;;24.53;;
59271;SDS011;45043;51.068;7.026;2022-12-07T01:24:37;30.20;;;25.23;;
59271;SDS011;45043;51.068;7.026;2022-12-07T01:27:37;33.30;;;26.23;;
59271;SDS011;45043;51.068;7.026;2022-12-07T01:30:38;34.63;;;26.50;;
59271;SDS011;45043;51.068;7.026;2022-12-07T01:33:39;33.60;;;27.43;;
59271;SDS011;45043;51.068;7.026;2022-12-07T01:36:39;34.80;;;27.00;;
59271;SDS011;45043;51.068;7.026;2022-12-07T01:39:39;34.50;;;26.90;;
59271;SDS011;45043;51.068;7.026;2022-12-07T01:42:41;37.33;;;28.43;;
59271;SDS011;45043;51.068;7.026;2022-12-07T01:45:41;35.90;;;28.07;;
59271;SDS011;45043;51.068;7.026;2022-12-07T01:48:42;48.70;;;31.93;;
59271;SDS011;45043;51.068;7.026;2022-12-07T01:51:43;40.27;;;29.83;;
59271;SDS011;45043;51.068;7.026;2022-12-07T01:54:46;43.27;;;32.17;;
59271;SDS011;45043;51.068;7.026;2022-12-07T01:57:50;46.50;;;32.57;;
59271;SDS011;45043;51.068;7.026;2022-12-07T02:00:52;44.53;;;31.80;;
59271;SDS011;45043;51.068;7.026;2022-12-07T02:03:53;39.60;;;31.43;;
59271;SDS011;45043;51.068;7.026;2022-12-07T02:06:54;42.00;;;32.50;;
59271;SDS011;45043;51.068;7.026;2022-12-07T02:09:55;39.13;;;30.87;;
59271;SDS011;45043;51.068;7.026;2022-12-07T02:12:56;45.77;;;32.67;;
59271;SDS011;45043;51.068;7.026;2022-12-07T02:30:01;45.23;;;33.37;;
59271;SDS011;45043;51.068;7.026;2022-12-07T02:36:11;41.63;;;31.13;;
59271;SDS011;45043;51.068;7.026;2022-12-07T02:39:19;46.10;;;33.83;;
59271;SDS011;45043;51.068;7.026;2022-12-07T02:42:30;48.87;;;35.10;;
59271;SDS011;45043;51.068;7.026;2022-12-07T02:45:37;46.13;;;33.43;;
59271;SDS011;45043;51.068;7.026;2022-12-07T02:48:40;41.90;;;31.83;;
59271;SDS011;45043;51.068;7.026;2022-12-07T02:51:43;47.03;;;35.10;;
59271;SDS011;45043;51.068;7.026;2022-12-07T02:54:46;51.13;;;35.40;;
59271;SDS011;45043;51.068;7.026;2022-12-07T02:57:54;46.67;;;33.97;;
59271;SDS011;45043;51.068;7.026;2022-12-07T03:11:47;53.20;;;38.43;;
59271;SDS011;45043;51.068;7.026;2022-12-07T03:14:56;46.93;;;34.40;;
59271;SDS011;45043;51.068;7.026;2022-12-07T03:18:04;48.87;;;35.00;;
59271;SDS011;45043;51.068;7.026;2022-12-07T03:21:06;46.43;;;34.80;;
59271;SDS011;45043;51.068;7.026;2022-12-07T03:24:20;45.53;;;34.60;;
59271;SDS011;45043;51.068;7.026;2022-12-07T03:27:25;45.90;;;34.67;;
59271;SDS011;45043;51.068;7.026;2022-12-07T03:30:33;44.37;;;34.27;;
59271;SDS011;45043;51.068;7.026;2022-12-07T03:33:44;48.23;;;36.07;;
59271;SDS011;45043;51.068;7.026;2022-12-07T03:37:00;49.90;;;36.47;;
59271;SDS011;45043;51.068;7.026;2022-12-07T03:40:22;49.90;;;38.20;;
59271;SDS011;45043;51.068;7.026;2022-12-07T03:43:29;51.53;;;36.97;;
59271;SDS011;45043;51.068;7.026;2022-12-07T03:47:04;50.53;;;36.20;;
59271;SDS011;45043;51.068;7.026;2022-12-07T03:50:31;45.30;;;35.47;;
59271;SDS011;45043;51.068;7.026;2022-12-07T03:53:36;48.93;;;35.97;;
59271;SDS011;45043;51.068;7.026;2022-12-07T03:56:47;46.63;;;35.37;;
59271;SDS011;45043;51.068;7.026;2022-12-07T03:59:49;46.37;;;36.37;;
59271;SDS011;45043;51.068;7.026;2022-12-07T04:02:51;45.27;;;36.50;;
59271;SDS011;45043;51.068;7.026;2022-12-07T04:05:53;47.93;;;35.83;;
59271;SDS011;45043;51.068;7.026;2022-12-07T04:08:54;47.10;;;35.63;;
59271;SDS011;45043;51.068;7.026;2022-12-07T04:11:54;48.50;;;35.87;;
59271;SDS011;45043;51.068;7.026;2022-12-07T04:14:54;51.20;;;38.47;;
59271;SDS011;45043;51.068;7.026;2022-12-07T04:17:55;50.93;;;37.90;;
59271;SDS011;45043;51.068;7.026;2022-12-07T04:20:55;45.67;;;35.17;;
59271;SDS011;45043;51.068;7.026;2022-12-07T04:23:55;43.17;;;34.53;;
59271;SDS011;45043;51.068;7.026;2022-12-07T04:26:56;42.57;;;34.77;;
59271;SDS011;45043;51.068;7.026;2022-12-07T04:29:56;45.53;;;35.50;;
59271;SDS011;45043;51.068;7.026;2022-12-07T04:32:56;42.33;;;33.20;;
59271;SDS011;45043;51.068;7.026;2022-12-07T04:35:57;47.23;;;35.37;;
59271;SDS011;45043;51.068;7.026;2022-12-07T04:38:57;41.23;;;33.73;;
59271;SDS011;45043;51.068;7.026;2022-12-07T04:41:59;50.33;;;37.67;;
59271;SDS011;45043;51.068;7.026;2022-12-07T04:45:00;49.27;;;37.37;;
59271;SDS011;45043;51.068;7.026;2022-12-07T04:48:00;52.33;;;37.03;;
59271;SDS011;45043;51.068;7.026;2022-12-07T04:51:02;43.93;;;33.97;;
59271;SDS011;45043;51.068;7.026;2022-12-07T04:54:03;40.10;;;32.13;;
59271;SDS011;45043;51.068;7.026;2022-12-07T04:57:04;47.90;;;33.93;;
59271;SDS011;45043;51.068;7.026;2022-12-07T05:00:05;40.13;;;30.53;;
59271;SDS011;45043;51.068;7.026;2022-12-07T05:03:06;40.77;;;31.37;;
59271;SDS011;45043;51.068;7.026;2022-12-07T05:06:06;38.00;;;31.00;;
59271;SDS011;45043;51.068;7.026;2022-12-07T05:09:07;36.07;;;30.07;;
59271;SDS011;45043;51.068;7.026;2022-12-07T05:12:07;34.70;;;28.67;;
59271;SDS011;45043;51.068;7.026;2022-12-07T05:15:08;30.77;;;25.27;;
59271;SDS011;45043;51.068;7.026;2022-12-07T05:18:09;27.20;;;24.23;;
59271;SDS011;45043;51.068;7.026;2022-12-07T05:21:12;25.53;;;21.30;;
59271;SDS011;45043;51.068;7.026;2022-12-07T05:24:13;26.43;;;23.60;;
59271;SDS011;45043;51.068;7.026;2022-12-07T05:27:15;25.73;;;21.63;;
59271;SDS011;45043;51.068;7.026;2022-12-07T05:30:15;24.60;;;22.00;;
59271;SDS011;45043;51.068;7.026;2022-12-07T05:33:15;25.33;;;22.17;;
59271;SDS011;45043;51.068;7.026;2022-12-07T05:36:16;26.60;;;22.63;;
59271;SDS011;45043;51.068;7.026;2022-12-07T05:39:16;24.03;;;21.50;;
59271;SDS011;45043;51.068;7.026;2022-12-07T05:42:16;22.47;;;19.07;;
59271;SDS011;45043;51.068;7.026;2022-12-07T05:45:17;24.00;;;20.37;;
59271;SDS011;45043;51.068;7.026;2022-12-07T05:48:18;18.53;;;14.97;;
59271;SDS011;45043;51.068;7.026;2022-12-07T05:51:18;21.97;;;19.23;;
59271;SDS011;45043;51.068;7.026;2022-12-07T05:54:19;19.60;;;17.10;;
59271;SDS011;45043;51.068;7.026;2022-12-07T05:57:19;19.83;;;16.93;;
59271;SDS011;45043;51.068;7.026;2022-12-07T06:00:20;18.97;;;16.50;;
59271;SDS011;45043;51.068;7.026;2022-12-07T06:03:20;21.17;;;17.93;;
59271;SDS011;45043;51.068;7.026;2022-12-07T06:06:21;25.17;;;19.07;;
59271;SDS011;45043;51.068;7.026;2022-12-07T06:09:22;20.13;;;17.17;;
59271;SDS011;45043;51.068;7.026;2022-12-07T06:12:23;17.07;;;15.23;;
59271;SDS011;45043;51.068;7.026;2022-12-07T06:15:38;17.50;;;15.60;;
59271;SDS011;45043;51.068;7.026;2022-12-07T06:18:38;20.23;;;18.00;;
59271;SDS011;45043;51.068;7.026;2022-12-07T06:21:38;17.30;;;15.30;;
59271;SDS011;45043;51.068;7.026;2022-12-07T06:24:39;21.77;;;19.47;;
59271;SDS011;45043;51.068;7.026;2022-12-07T06:27:40;22.70;;;18.87;;
59271;SDS011;45043;51.068;7.026;2022-12-07T06:30:40;18.73;;;16.83;;
59271;SDS011;45043;51.068;7.026;2022-12-07T06:33:41;21.57;;;17.77;;
59271;SDS011;45043;51.068;7.026;2022-12-07T06:36:42;21.37;;;17.50;;
59271;SDS011;45043;51.068;7.026;2022-12-07T06:39:44;18.40;;;16.50;;
59271;SDS011;45043;51.068;7.026;2022-12-07T06:42:45;18.43;;;16.47;;
59271;SDS011;45043;51.068;7.026;2022-12-07T06:45:45;18.73;;;16.73;;
59271;SDS011;45043;51.068;7.026;2022-12-07T06:48:45;20.33;;;15.60;;
59271;SDS011;45043;51.068;7.026;2022-12-07T06:51:46;15.07;;;13.33;;
59271;SDS011;45043;51.068;7.026;2022-12-07T06:54:46;18.07;;;14.63;;
59271;SDS011;45043;51.068;7.026;2022-12-07T06:57:49;18.93;;;14.63;;
59271;SDS011;45043;51.068;7.026;2022-12-07T07:00:49;18.83;;;16.83;;
59271;SDS011;45043;51.068;7.026;2022-12-07T07:03:50;18.43;;;16.37;;
59271;SDS011;45043;51.068;7.026;2022-12-07T07:06:50;17.53;;;15.13;;
59271;SDS011;45043;51.068;7.026;2022-12-07T07:09:50;20.67;;;15.97;;
59271;SDS011;45043;51.068;7.026;2022-12-07T07:12:51;18.70;;;15.70;;
59271;SDS011;45043;51.068;7.026;2022-12-07T07:15:51;17.10;;;15.37;;
59271;SDS011;45043;51.068;7.026;2022-12-07T07:18:52;15.97;;;14.30;;
59271;SDS011;45043;51.068;7.026;2022-12-07T07:21:52;19.33;;;16.17;;
59271;SDS011;45043;51.068;7.026;2022-12-07T07:24:52;17.30;;;15.37;;
59271;SDS011;45043;51.068;7.026;2022-12-07T07:27:53;22.77;;;18.97;;
59271;SDS011;45043;51.068;7.026;2022-12-07T07:30:53;19.60;;;16.80;;
59271;SDS011;45043;51.068;7.026;2022-12-07T07:33:54;20.43;;;16.20;;
59271;SDS011;45043;51.068;7.026;2022-12-07T07:36:54;19.20;;;16.13;;
59271;SDS011;45043;51.068;7.026;2022-12-07T07:39:54;17.60;;;15.63;;
59271;SDS011;45043;51.068;7.026;2022-12-07T07:42:55;20.73;;;16.87;;
59271;SDS011;45043;51.068;7.026;2022-12-07T07:45:56;20.60;;;17.40;;
59271;SDS011;45043;51.068;7.026;2022-12-07T07:48:56;23.23;;;20.53;;
59271;SDS011;45043;51.068;7.026;2022-12-07T07:51:57;25.70;;;20.33;;
59271;SDS011;45043;51.068;7.026;2022-12-07T07:54:57;23.00;;;20.50;;
59271;SDS011;45043;51.068;7.026;2022-12-07T07:57:58;23.47;;;18.80;;
59271;SDS011;45043;51.068;7.026;2022-12-07T08:01:03;21.33;;;17.63;;
59271;SDS011;45043;51.068;7.026;2022-12-07T08:04:04;20.53;;;17.53;;
59271;SDS011;45043;51.068;7.026;2022-12-07T08:07:04;23.60;;;18.93;;
59271;SDS011;45043;51.068;7.026;2022-12-07T08:10:05;23.60;;;18.30;;
59271;SDS011;45043;51.068;7.026;2022-12-07T08:13:06;20.17;;;17.97;;
59271;SDS011;45043;51.068;7.026;2022-12-07T08:16:16;20.93;;;18.43;;
59271;SDS011;45043;51.068;7.026;2022-12-07T08:19:16;21.07;;;17.47;;
59271;SDS011;45043;51.068;7.026;2022-12-07T08:22:17;22.90;;;18.27;;
59271;SDS011;45043;51.068;7.026;2022-12-07T08:25:17;22.47;;;18.73;;
59271;SDS011;45043;51.068;7.026;2022-12-07T08:28:18;26.47;;;21.00;;
59271;SDS011;45043;51.068;7.026;2022-12-07T08:31:18;19.27;;;16.63;;
59271;SDS011;45043;51.068;7.026;2022-12-07T08:34:19;21.40;;;18.87;;
59271;SDS011;45043;51.068;7.026;2022-12-07T08:37:19;27.10;;;20.77;;
59271;SDS011;45043;51.068;7.026;2022-12-07T08:40:20;20.20;;;16.77;;
59271;SDS011;45043;51.068;7.026;2022-12-07T08:43:21;17.80;;;15.87;;
59271;SDS011;45043;51.068;7.026;2022-12-07T08:46:23;20.07;;;16.63;;
59271;SDS011;45043;51.068;7.026;2022-12-07T08:49:39;19.20;;;17.00;;
59271;SDS011;45043;51.068;7.026;2022-12-07T08:52:42;19.47;;;15.83;;
59271;SDS011;45043;51.068;7.026;2022-12-07T08:55:44;20.27;;;17.17;;
59271;SDS011;45043;51.068;7.026;2022-12-07T08:58:46;21.13;;;16.67;;
59271;SDS011;45043;51.068;7.026;2022-12-07T09:01:47;20.57;;;16.00;;
59271;SDS011;45043;51.068;7.026;2022-12-07T09:04:47;20.93;;;16.67;;
59271;SDS011;45043;51.068;7.026;2022-12-07T09:07:48;19.57;;;17.27;;
59271;SDS011;45043;51.068;7.026;2022-12-07T09:10:51;19.00;;;15.83;;
59271;SDS011;45043;51.068;7.026;2022-12-07T09:13:51;21.63;;;18.73;;
59271;SDS011;45043;51.068;7.026;2022-12-07T09:16:52;23.97;;;18.67;;
59271;SDS011;45043;51.068;7.026;2022-12-07T09:19:52;26.03;;;20.77;;
59271;SDS011;45043;51.068;7.026;2022-12-07T09:22:52;21.53;;;19.23;;
59271;SDS011;45043;51.068;7.026;2022-12-07T09:25:53;21.50;;;19.07;;
59271;SDS011;45043;51.068;7.026;2022-12-07T09:28:53;23.60;;;17.50;;
59271;SDS011;45043;51.068;7.026;2022-12-07T09:31:54;24.90;;;19.80;;
59271;SDS011;45043;51.068;7.026;2022-12-07T09:34:54;25.50;;;19.20;;
59271;SDS011;45043;51.068;7.026;2022-12-07T09:37:55;27.20;;;19.20;;
59271;SDS011;45043;51.068;7.026;2022-12-07T09:40:55;24.30;;;20.17;;
59271;SDS011;45043;51.068;7.026;2022-12-07T09:43:58;23.33;;;17.70;;
59271;SDS011;45043;51.068;7.026;2022-12-07T09:47:04;20.03;;;17.17;;
59271;SDS011;45043;51.068;7.026;2022-12-07T09:50:16;21.17;;;18.77;;
59271;SDS011;45043;51.068;7.026;2022-12-07T09:53:29;22.73;;;17.47;;
59271;SDS011;45043;51.068;7.026;2022-12-07T09:56:33;20.43;;;16.93;;
59271;SDS011;45043;51.068;7.026;2022-12-07T09:59:33;22.17;;;17.83;;
59271;SDS011;45043;51.068;7.026;2022-12-07T10:02:38;21.10;;;17.93;;
59271;SDS011;45043;51.068;7.026;2022-12-07T10:05:43;28.50;;;19.03;;
59271;SDS011;45043;51.068;7.026;2022-12-07T10:08:45;26.17;;;18.90;;
59271;SDS011;45043;51.068;7.026;2022-12-07T10:15:18;20.73;;;17.27;;
59271;SDS011;45043;51.068;7.026;2022-12-07T10:21:23;21.37;;;17.80;;
59271;SDS011;45043;51.068;7.026;2022-12-07T10:24:25;22.70;;;17.60;;
59271;SDS011;45043;51.068;7.026;2022-12-07T10:27:29;26.90;;;17.17;;
59271;SDS011;45043;51.068;7.026;2022-12-07T10:30:31;21.67;;;16.83;;
59271;SDS011;45043;51.068;7.026;2022-12-07T10:33:34;22.00;;;17.33;;
59271;SDS011;45043;51.068;7.026;2022-12-07T10:36:37;19.23;;;16.27;;
59271;SDS011;45043;51.068;7.026;2022-12-07T10:39:51;18.13;;;15.30;;
59271;SDS011;45043;51.068;7.026;2022-12-07T10:53:32;19.20;;;15.07;;
59271;SDS011;45043;51.068;7.026;2022-12-07T10:57:02;17.63;;;14.00;;
59271;SDS011;45043;51.068;7.026;2022-12-07T11:00:19;19.63;;;14.07;;
59271;SDS011;45043;51.068;7.026;2022-12-07T11:07:18;19.70;;;12.80;;
59271;SDS011;45043;51.068;7.026;2022-12-07T11:13:53;16.67;;;11.87;;
59271;SDS011;45043;51.068;7.026;2022-12-07T11:17:03;14.70;;;11.87;;
59271;SDS011;45043;51.068;7.026;2022-12-07T11:20:48;16.00;;;11.77;;
59271;SDS011;45043;51.068;7.026;2022-12-07T11:34:36;20.50;;;12.13;;
59271;SDS011;45043;51.068;7.026;2022-12-07T11:37:44;19.63;;;13.30;;
59271;SDS011;45043;51.068;7.026;2022-12-07T11:40:48;16.97;;;12.80;;
59271;SDS011;45043;51.068;7.026;2022-12-07T11:43:56;20.17;;;11.70;;
59271;SDS011;45043;51.068;7.026;2022-12-07T11:47:04;17.03;;;12.20;;
59271;SDS011;45043;51.068;7.026;2022-12-07T11:53:32;16.67;;;12.27;;
59271;SDS011;45043;51.068;7.026;2022-12-07T11:56:45;17.53;;;12.67;;
59271;SDS011;45043;51.068;7.026;2022-12-07T11:59:50;17.63;;;12.93;;
59271;SDS011;45043;51.068;7.026;2022-12-07T12:03:05;17.17;;;12.73;;
59271;SDS011;45043;51.068;7.026;2022-12-07T12:06:13;22.40;;;13.90;;
59271;SDS011;45043;51.068;7.026;2022-12-07T12:12:45;19.87;;;13.60;;
59271;SDS011;45043;51.068;7.026;2022-12-07T12:22:35;14.13;;;11.23;;
59271;SDS011;45043;51.068;7.026;2022-12-07T12:25:40;13.87;;;10.83;;
59271;SDS011;45043;51.068;7.026;2022-12-07T12:32:18;13.93;;;11.17;;
59271;SDS011;45043;51.068;7.026;2022-12-07T12:35:32;13.47;;;10.10;;
59271;SDS011;45043;51.068;7.026;2022-12-07T12:39:20;14.07;;;10.37;;
59271;SDS011;45043;51.068;7.026;2022-12-07T12:41:59;12.03;;;9.63;;
59271;SDS011;45043;51.068;7.026;2022-12-07T12:45:04;13.40;;;8.53;;
59271;SDS011;45043;51.068;7.026;2022-12-07T12:48:30;12.83;;;9.80;;
59271;SDS011;45043;51.068;7.026;2022-12-07T12:51:37;18.07;;;10.13;;
59271;SDS011;45043;51.068;7.026;2022-12-07T12:54:57;13.20;;;9.57;;
59271;SDS011;45043;51.068;7.026;2022-12-07T12:58:40;13.87;;;9.80;;
59271;SDS011;45043;51.068;7.026;2022-12-07T13:04:54;15.27;;;8.77;;
59271;SDS011;45043;51.068;7.026;2022-12-07T13:08:13;14.17;;;8.67;;
59271;SDS011;45043;51.068;7.026;2022-12-07T13:11:33;12.53;;;8.23;;
59271;SDS011;45043;51.068;7.026;2022-12-07T13:14:55;15.70;;;8.97;;
59271;SDS011;45043;51.068;7.026;2022-12-07T13:17:58;16.80;;;9.03;;
59271;SDS011;45043;51.068;7.026;2022-12-07T13:24:07;13.60;;;9.03;;
59271;SDS011;45043;51.068;7.026;2022-12-07T13:27:12;14.37;;;8.87;;
59271;SDS011;45043;51.068;7.026;2022-12-07T13:30:17;14.63;;;8.83;;
59271;SDS011;45043;51.068;7.026;2022-12-07T13:33:20;14.57;;;8.37;;
59271;SDS011;45043;51.068;7.026;2022-12-07T13:36:22;11.53;;;8.30;;
59271;SDS011;45043;51.068;7.026;2022-12-07T13:39:24;15.23;;;9.20;;
59271;SDS011;45043;51.068;7.026;2022-12-07T13:42:30;13.17;;;8.10;;
59271;SDS011;45043;51.068;7.026;2022-12-07T13:45:33;13.57;;;8.57;;
59271;SDS011;45043;51.068;7.026;2022-12-07T13:48:49;12.17;;;8.60;;
59271;SDS011;45043;51.068;7.026;2022-12-07T13:51:51;13.27;;;9.13;;
59271;SDS011;45043;51.068;7.026;2022-12-07T13:54:59;14.77;;;8.53;;
59271;SDS011;45043;51.068;7.026;2022-12-07T13:58:07;17.17;;;9.10;;
59271;SDS011;45043;51.068;7.026;2022-12-07T14:01:08;12.97;;;10.00;;
59271;SDS011;45043;51.068;7.026;2022-12-07T14:07:29;15.00;;;9.17;;
59271;SDS011;45043;51.068;7.026;2022-12-07T14:10:30;16.27;;;8.77;;
59271;SDS011;45043;51.068;7.026;2022-12-07T14:17:02;17.17;;;9.63;;
59271;SDS011;45043;51.068;7.026;2022-12-07T14:23:34;13.07;;;8.47;;
59271;SDS011;45043;51.068;7.026;2022-12-07T14:26:35;14.63;;;8.53;;
59271;SDS011;45043;51.068;7.026;2022-12-07T14:29:37;13.00;;;8.87;;
59271;SDS011;45043;51.068;7.026;2022-12-07T14:32:37;16.20;;;8.30;;
59271;SDS011;45043;51.068;7.026;2022-12-07T14:35:38;11.47;;;7.77;;
59271;SDS011;45043;51.068;7.026;2022-12-07T14:38:40;16.83;;;9.13;;
59271;SDS011;45043;51.068;7.026;2022-12-07T14:41:41;14.40;;;9.20;;
59271;SDS011;45043;51.068;7.026;2022-12-07T14:44:50;16.23;;;9.70;;
59271;SDS011;45043;51.068;7.026;2022-12-07T14:47:51;13.60;;;9.23;;
59271;SDS011;45043;51.068;7.026;2022-12-07T14:50:52;18.40;;;9.70;;
59271;SDS011;45043;51.068;7.026;2022-12-07T14:53:53;14.83;;;9.00;;
59271;SDS011;45043;51.068;7.026;2022-12-07T14:56:53;15.27;;;9.93;;
59271;SDS011;45043;51.068;7.026;2022-12-07T14:59:54;15.43;;;9.47;;
59271;SDS011;45043;51.068;7.026;2022-12-07T15:02:54;16.03;;;9.80;;
59271;SDS011;45043;51.068;7.026;2022-12-07T15:05:55;15.53;;;10.17;;
59271;SDS011;45043;51.068;7.026;2022-12-07T15:08:56;13.73;;;10.20;;
59271;SDS011;45043;51.068;7.026;2022-12-07T15:11:56;13.50;;;9.97;;
59271;SDS011;45043;51.068;7.026;2022-12-07T15:14:57;15.50;;;9.93;;
59271;SDS011;45043;51.068;7.026;2022-12-07T15:17:57;15.57;;;9.83;;
59271;SDS011;45043;51.068;7.026;2022-12-07T15:20:57;15.23;;;10.07;;
59271;SDS011;45043;51.068;7.026;2022-12-07T15:23:58;16.10;;;12.10;;
59271;SDS011;45043;51.068;7.026;2022-12-07T15:26:58;22.70;;;11.77;;
59271;SDS011;45043;51.068;7.026;2022-12-07T15:29:59;18.33;;;11.23;;
59271;SDS011;45043;51.068;7.026;2022-12-07T15:32:59;16.60;;;11.67;;
59271;SDS011;45043;51.068;7.026;2022-12-07T15:36:00;15.83;;;9.77;;
59271;SDS011;45043;51.068;7.026;2022-12-07T15:39:00;14.90;;;10.30;;
59271;SDS011;45043;51.068;7.026;2022-12-07T15:42:01;15.30;;;9.43;;
59271;SDS011;45043;51.068;7.026;2022-12-07T15:45:02;10.10;;;8.03;;
59271;SDS011;45043;51.068;7.026;2022-12-07T15:48:04;10.47;;;7.80;;
59271;SDS011;45043;51.068;7.026;2022-12-07T15:51:05;9.97;;;7.60;;
59271;SDS011;45043;51.068;7.026;2022-12-07T15:54:08;11.17;;;7.43;;
59271;SDS011;45043;51.068;7.026;2022-12-07T15:57:13;11.23;;;7.33;;
59271;SDS011;45043;51.068;7.026;2022-12-07T16:00:14;8.80;;;7.10;;
59271;SDS011;45043;51.068;7.026;2022-12-07T16:03:14;10.70;;;7.17;;
59271;SDS011;45043;51.068;7.026;2022-12-07T16:06:16;9.23;;;7.13;;
59271;SDS011;45043;51.068;7.026;2022-12-07T16:09:17;8.40;;;6.77;;
59271;SDS011;45043;51.068;7.026;2022-12-07T16:12:18;7.43;;;6.73;;
59271;SDS011;45043;51.068;7.026;2022-12-07T16:15:19;9.07;;;7.80;;
59271;SDS011;45043;51.068;7.026;2022-12-07T16:18:19;7.57;;;6.73;;
59271;SDS011;45043;51.068;7.026;2022-12-07T16:21:19;8.60;;;7.10;;
59271;SDS011;45043;51.068;7.026;2022-12-07T16:24:20;8.97;;;6.50;;
59271;SDS011;45043;51.068;7.026;2022-12-07T16:27:20;12.17;;;7.20;;
59271;SDS011;45043;51.068;7.026;2022-12-07T16:30:21;7.77;;;6.73;;
59271;SDS011;45043;51.068;7.026;2022-12-07T16:33:21;10.30;;;7.07;;
59271;SDS011;45043;51.068;7.026;2022-12-07T16:36:22;11.07;;;7.13;;
59271;SDS011;45043;51.068;7.026;2022-12-07T16:39:24;8.97;;;7.77;;
59271;SDS011;45043;51.068;7.026;2022-12-07T16:42:24;11.53;;;8.40;;
59271;SDS011;45043;51.068;7.026;2022-12-07T16:45:25;14.00;;;9.07;;
59271;SDS011;45043;51.068;7.026;2022-12-07T16:48:25;14.37;;;9.50;;
59271;SDS011;45043;51.068;7.026;2022-12-07T16:51:26;14.03;;;9.10;;
59271;SDS011;45043;51.068;7.026;2022-12-07T16:54:26;11.33;;;10.13;;
59271;SDS011;45043;51.068;7.026;2022-12-07T16:57:30;15.70;;;10.03;;
59271;SDS011;45043;51.068;7.026;2022-12-07T17:00:32;10.73;;;9.37;;
59271;SDS011;45043;51.068;7.026;2022-12-07T17:03:32;12.37;;;10.37;;
59271;SDS011;45043;51.068;7.026;2022-12-07T17:06:33;12.83;;;11.33;;
59271;SDS011;45043;51.068;7.026;2022-12-07T17:09:33;12.90;;;10.33;;
59271;SDS011;45043;51.068;7.026;2022-12-07T17:12:35;14.33;;;10.90;;
59271;SDS011;45043;51.068;7.026;2022-12-07T17:15:35;15.03;;;11.13;;
59271;SDS011;45043;51.068;7.026;2022-12-07T17:18:35;12.10;;;10.30;;
59271;SDS011;45043;51.068;7.026;2022-12-07T17:21:36;14.87;;;11.50;;
59271;SDS011;45043;51.068;7.026;2022-12-07T17:24:37;14.13;;;11.77;;
59271;SDS011;45043;51.068;7.026;2022-12-07T17:27:37;16.70;;;11.80;;
59271;SDS011;45043;51.068;7.026;2022-12-07T17:30:38;15.20;;;11.90;;
59271;SDS011;45043;51.068;7.026;2022-12-07T17:33:39;16.73;;;12.67;;
59271;SDS011;45043;51.068;7.026;2022-12-07T17:36:40;17.70;;;13.20;;
59271;SDS011;45043;51.068;7.026;2022-12-07T17:39:41;15.00;;;13.40;;
59271;SDS011;45043;51.068;7.026;2022-12-07T17:42:41;16.70;;;13.63;;
59271;SDS011;45043;51.068;7.026;2022-12-07T17:45:47;17.97;;;14.53;;
59271;SDS011;45043;51.068;7.026;2022-12-07T17:48:47;16.33;;;14.33;;
59271;SDS011;45043;51.068;7.026;2022-12-07T17:51:47;17.07;;;14.67;;
59271;SDS011;45043;51.068;7.026;2022-12-07T17:55:05;16.57;;;14.20;;
59271;SDS011;45043;51.068;7.026;2022-12-07T17:58:06;19.53;;;15.27;;
59271;SDS011;45043;51.068;7.026;2022-12-07T18:01:10;21.27;;;16.10;;
59271;SDS011;45043;51.068;7.026;2022-12-07T18:04:10;22.73;;;17.23;;
59271;SDS011;45043;51.068;7.026;2022-12-07T18:07:11;19.97;;;17.87;;
59271;SDS011;45043;51.068;7.026;2022-12-07T18:10:11;21.80;;;17.23;;
59271;SDS011;45043;51.068;7.026;2022-12-07T18:13:12;22.10;;;17.43;;
59271;SDS011;45043;51.068;7.026;2022-12-07T18:16:31;20.20;;;17.00;;
59271;SDS011;45043;51.068;7.026;2022-12-07T18:19:34;23.53;;;17.80;;
59271;SDS011;45043;51.068;7.026;2022-12-07T18:22:36;23.67;;;18.13;;
59271;SDS011;45043;51.068;7.026;2022-12-07T18:25:38;25.83;;;18.63;;
59271;SDS011;45043;51.068;7.026;2022-12-07T18:28:40;25.53;;;18.50;;
59271;SDS011;45043;51.068;7.026;2022-12-07T18:31:41;22.80;;;17.70;;
59271;SDS011;45043;51.068;7.026;2022-12-07T18:34:41;23.33;;;17.27;;
59271;SDS011;45043;51.068;7.026;2022-12-07T18:37:42;21.63;;;17.80;;
59271;SDS011;45043;51.068;7.026;2022-12-07T18:40:42;26.80;;;19.43;;
59271;SDS011;45043;51.068;7.026;2022-12-07T18:43:43;20.23;;;18.13;;
59271;SDS011;45043;51.068;7.026;2022-12-07T18:46:44;23.73;;;18.40;;
59271;SDS011;45043;51.068;7.026;2022-12-07T18:49:44;25.37;;;20.67;;
59271;SDS011;45043;51.068;7.026;2022-12-07T18:52:45;22.87;;;20.40;;
59271;SDS011;45043;51.068;7.026;2022-12-07T18:55:45;23.17;;;20.57;;
59271;SDS011;45043;51.068;7.026;2022-12-07T18:58:49;28.47;;;20.93;;
59271;SDS011;45043;51.068;7.026;2022-12-07T19:02:10;26.37;;;20.87;;
59271;SDS011;45043;51.068;7.026;2022-12-07T19:05:11;27.33;;;22.30;;
59271;SDS011;45043;51.068;7.026;2022-12-07T19:08:11;33.47;;;22.50;;
59271;SDS011;45043;51.068;7.026;2022-12-07T19:11:18;25.20;;;22.03;;
59271;SDS011;45043;51.068;7.026;2022-12-07T19:14:41;25.77;;;20.73;;
59271;SDS011;45043;51.068;7.026;2022-12-07T19:17:41;27.80;;;20.97;;
59271;SDS011;45043;51.068;7.026;2022-12-07T19:20:42;27.60;;;20.63;;
59271;SDS011;45043;51.068;7.026;2022-12-07T19:23:42;31.27;;;21.13;;
59271;SDS011;45043;51.068;7.026;2022-12-07T19:26:43;28.10;;;21.20;;
59271;SDS011;45043;51.068;7.026;2022-12-07T19:29:44;28.47;;;20.77;;